createdAt,value
2019-04-29T00:00:32.355Z,0
2019-04-29T00:01:32.320Z,0
2019-04-29T00:02:32.296Z,0
2019-04-29T00:03:32.318Z,0
2019-04-29T00:04:32.591Z,0
2019-04-29T00:05:32.351Z,0
2019-04-29T00:06:32.332Z,0
2019-04-29T00:07:32.315Z,0
2019-04-29T00:08:32.305Z,0
2019-04-29T00:09:33.685Z,0
2019-04-29T00:10:32.646Z,0
2019-04-29T00:11:32.291Z,0
2019-04-29T00:12:32.297Z,0
2019-04-29T00:13:32.297Z,0
2019-04-29T00:14:32.311Z,0
2019-04-29T00:15:32.332Z,0
2019-04-29T00:16:32.709Z,0
2019-04-29T00:17:32.324Z,0
2019-04-29T00:18:32.330Z,0
2019-04-29T00:19:32.332Z,0
2019-04-29T00:20:32.808Z,0
2019-04-29T00:21:32.369Z,0
2019-04-29T00:22:32.636Z,0
2019-04-29T00:23:32.376Z,0
2019-04-29T00:24:32.344Z,0
2019-04-29T00:25:32.395Z,0
2019-04-29T00:26:32.459Z,0
2019-04-29T00:27:32.349Z,0
2019-04-29T00:28:32.353Z,0
2019-04-29T00:29:32.359Z,0
2019-04-29T00:30:32.348Z,0
2019-04-29T00:31:32.363Z,0
2019-04-29T00:32:32.455Z,0
2019-04-29T00:33:32.304Z,0
2019-04-29T00:34:32.756Z,0
2019-04-29T00:35:32.533Z,0
2019-04-29T00:36:32.401Z,0
2019-04-29T00:37:32.363Z,0
2019-04-29T00:38:32.438Z,0
2019-04-29T00:39:32.312Z,0
2019-04-29T00:40:32.718Z,0
2019-04-29T00:41:32.390Z,0
2019-04-29T00:42:32.437Z,0
2019-04-29T00:43:32.363Z,0
2019-04-29T00:44:32.471Z,0
2019-04-29T00:45:32.362Z,0
2019-04-29T00:46:32.834Z,0
2019-04-29T00:47:32.389Z,0
2019-04-29T00:48:32.355Z,0
2019-04-29T00:49:34.680Z,0
2019-04-29T00:50:34.300Z,0
2019-04-29T00:51:33.794Z,0
2019-04-29T00:52:34.499Z,0
2019-04-29T00:53:34.381Z,0
2019-04-29T00:54:34.288Z,0
2019-04-29T00:55:34.472Z,0
2019-04-29T00:56:34.719Z,0
2019-04-29T00:57:34.372Z,0
2019-04-29T00:58:34.971Z,0
2019-04-29T00:59:34.164Z,0
2019-04-29T01:00:33.625Z,0
2019-04-29T01:01:33.754Z,0
2019-04-29T01:02:33.657Z,0
2019-04-29T01:03:34.009Z,0
2019-04-29T01:04:34.042Z,0
2019-04-29T01:05:34.540Z,0
2019-04-29T01:06:33.856Z,0
2019-04-29T01:07:34.476Z,0
2019-04-29T01:08:34.122Z,0
2019-04-29T01:09:32.358Z,0
2019-04-29T01:10:32.711Z,0
2019-04-29T01:11:32.394Z,0
2019-04-29T01:12:32.400Z,0
2019-04-29T01:13:32.402Z,0
2019-04-29T01:14:32.471Z,0
2019-04-29T01:15:32.421Z,0
2019-04-29T01:16:32.815Z,0
2019-04-29T01:17:32.412Z,0
2019-04-29T01:18:32.414Z,0
2019-04-29T01:19:32.422Z,0
2019-04-29T01:20:32.352Z,0
2019-04-29T01:21:32.375Z,0
2019-04-29T01:22:32.387Z,0
2019-04-29T01:23:32.457Z,0
2019-04-29T01:24:32.378Z,0
2019-04-29T01:25:32.380Z,0
2019-04-29T01:26:32.442Z,0
2019-04-29T01:27:32.415Z,0
2019-04-29T01:28:32.747Z,0
2019-04-29T01:29:32.470Z,0
2019-04-29T01:30:32.444Z,0
2019-04-29T01:31:32.398Z,0
2019-04-29T01:32:32.452Z,0
2019-04-29T01:33:32.458Z,0
2019-04-29T01:34:32.768Z,0
2019-04-29T01:35:32.467Z,0
2019-04-29T01:36:32.437Z,0
2019-04-29T01:37:32.438Z,0
2019-04-29T01:38:32.430Z,0
2019-04-29T01:39:32.460Z,0
2019-04-29T01:40:32.765Z,0
2019-04-29T01:41:32.509Z,0
2019-04-29T01:42:32.534Z,0
2019-04-29T01:43:32.439Z,0
2019-04-29T01:44:32.423Z,0
2019-04-29T01:45:32.544Z,0
2019-04-29T01:46:32.836Z,0
2019-04-29T01:47:32.423Z,0
2019-04-29T01:48:32.430Z,0
2019-04-29T01:49:32.567Z,0
2019-04-29T01:50:32.530Z,0
2019-04-29T01:51:32.498Z,0
2019-04-29T01:52:32.776Z,0
2019-04-29T01:53:32.479Z,0
2019-04-29T01:54:32.519Z,0
2019-04-29T01:55:32.503Z,0
2019-04-29T01:56:32.426Z,0
2019-04-29T01:57:32.567Z,0
2019-04-29T01:58:32.830Z,0
2019-04-29T01:59:32.508Z,0
2019-04-29T02:00:32.456Z,0
2019-04-29T02:01:32.499Z,0
2019-04-29T02:02:32.449Z,0
2019-04-29T02:03:32.553Z,0
2019-04-29T02:04:32.748Z,0
2019-04-29T02:05:32.466Z,0
2019-04-29T02:06:32.512Z,0
2019-04-29T02:07:32.911Z,0
2019-04-29T02:08:32.546Z,0
2019-04-29T02:09:32.458Z,0
2019-04-29T02:10:32.832Z,0
2019-04-29T02:11:32.573Z,0
2019-04-29T02:12:32.491Z,0
2019-04-29T02:13:32.520Z,0
2019-04-29T02:14:32.546Z,0
2019-04-29T02:15:32.651Z,0
2019-04-29T02:16:32.846Z,0
2019-04-29T02:17:35.556Z,0
2019-04-29T02:18:32.509Z,0
2019-04-29T02:19:32.626Z,0
2019-04-29T02:20:32.766Z,0
2019-04-29T02:21:32.527Z,0
2019-04-29T02:22:32.764Z,0
2019-04-29T02:23:32.503Z,0
2019-04-29T02:24:32.509Z,0
2019-04-29T02:25:32.505Z,0
2019-04-29T02:26:32.487Z,0
2019-04-29T02:27:32.525Z,0
2019-04-29T02:28:32.941Z,0
2019-04-29T02:29:32.725Z,0
2019-04-29T02:30:32.508Z,0
2019-04-29T02:31:32.502Z,0
2019-04-29T02:32:32.500Z,0
2019-04-29T02:33:32.547Z,0
2019-04-29T02:34:32.931Z,0
2019-04-29T02:35:32.562Z,0
2019-04-29T02:36:35.192Z,0
2019-04-29T02:37:32.535Z,0
2019-04-29T02:38:32.479Z,0
2019-04-29T02:39:32.515Z,0
2019-04-29T02:40:32.799Z,0
2019-04-29T02:41:32.588Z,0
2019-04-29T02:42:32.546Z,0
2019-04-29T02:43:32.573Z,0
2019-04-29T02:44:32.515Z,0
2019-04-29T02:45:32.568Z,0
2019-04-29T02:46:32.855Z,0
2019-04-29T02:47:32.536Z,0
2019-04-29T02:48:40.314Z,0
2019-04-29T02:49:32.609Z,0
2019-04-29T02:50:32.541Z,0
2019-04-29T02:51:32.520Z,0
2019-04-29T02:52:32.829Z,0
2019-04-29T02:53:32.536Z,0
2019-04-29T02:54:32.581Z,0
2019-04-29T02:55:32.554Z,0
2019-04-29T02:56:32.594Z,0
2019-04-29T02:57:32.559Z,0
2019-04-29T02:58:32.891Z,0
2019-04-29T02:59:32.558Z,0
2019-04-29T03:00:32.559Z,0
2019-04-29T03:01:32.607Z,0
2019-04-29T03:02:32.692Z,0
2019-04-29T03:03:32.523Z,0
2019-04-29T03:04:32.893Z,0
2019-04-29T03:05:32.533Z,0
2019-04-29T03:06:32.581Z,0
2019-04-29T03:07:32.522Z,0
2019-04-29T03:08:32.561Z,0
2019-04-29T03:09:32.665Z,0
2019-04-29T03:10:32.831Z,0
2019-04-29T03:11:32.593Z,0
2019-04-29T03:12:32.555Z,0
2019-04-29T03:13:32.645Z,0
2019-04-29T03:14:32.611Z,0
2019-04-29T03:15:32.583Z,0
2019-04-29T03:16:32.914Z,0
2019-04-29T03:17:32.549Z,0
2019-04-29T03:18:32.598Z,0
2019-04-29T03:19:32.621Z,0
2019-04-29T03:20:32.603Z,0
2019-04-29T03:21:32.648Z,0
2019-04-29T03:22:33.130Z,0
2019-04-29T03:23:32.645Z,0
2019-04-29T03:24:32.624Z,0
2019-04-29T03:25:32.570Z,0
2019-04-29T03:26:32.620Z,0
2019-04-29T03:27:32.608Z,0
2019-04-29T03:28:32.963Z,0
2019-04-29T03:29:32.779Z,0
2019-04-29T03:30:32.683Z,0
2019-04-29T03:31:38.542Z,0
2019-04-29T03:32:32.684Z,0
2019-04-29T03:33:32.746Z,0
2019-04-29T03:34:33.220Z,0
2019-04-29T03:35:32.572Z,0
2019-04-29T03:36:32.622Z,0
2019-04-29T03:37:32.642Z,0
2019-04-29T03:38:32.620Z,0
2019-04-29T03:39:32.578Z,0
2019-04-29T03:40:32.974Z,0
2019-04-29T03:41:32.632Z,0
2019-04-29T03:42:32.622Z,0
2019-04-29T03:43:32.726Z,0
2019-04-29T03:49:21.689Z,0
2019-04-29T03:50:32.808Z,0
2019-04-29T03:51:32.814Z,0
2019-04-29T03:52:32.786Z,0
2019-04-29T03:53:36.622Z,0
2019-04-29T03:54:32.965Z,0
2019-04-29T03:55:48.761Z,0
2019-04-29T03:56:32.871Z,0
2019-04-29T03:57:32.798Z,0
2019-04-29T03:58:32.859Z,0
2019-04-29T03:59:32.813Z,0
2019-04-29T04:00:33.322Z,0
2019-04-29T04:01:32.805Z,0
2019-04-29T04:02:32.723Z,0
2019-04-29T04:03:32.790Z,0
2019-04-29T04:04:32.921Z,0
2019-04-29T04:05:32.831Z,0
2019-04-29T04:06:32.782Z,0
2019-04-29T04:07:32.804Z,0
2019-04-29T04:08:32.772Z,0
2019-04-29T04:09:32.937Z,0
2019-04-29T04:10:32.855Z,0
2019-04-29T04:11:33.282Z,0
2019-04-29T04:12:33.464Z,0
2019-04-29T04:13:32.723Z,0
2019-04-29T04:14:32.782Z,0
2019-04-29T04:15:32.817Z,0
2019-04-29T04:16:32.712Z,0
2019-04-29T04:17:32.802Z,0
2019-04-29T04:18:33.298Z,0
2019-04-29T04:19:32.765Z,0
2019-04-29T04:20:32.771Z,0
2019-04-29T04:21:32.734Z,0
2019-04-29T04:22:33.298Z,0
2019-04-29T04:23:32.765Z,0
2019-04-29T04:24:35.091Z,0
2019-04-29T04:25:32.844Z,0
2019-04-29T04:26:32.766Z,0
2019-04-29T04:27:32.774Z,0
2019-04-29T04:28:32.740Z,0
2019-04-29T04:29:32.763Z,0
2019-04-29T04:30:33.301Z,0
2019-04-29T04:31:32.756Z,0
2019-04-29T04:32:32.851Z,0
2019-04-29T04:33:32.775Z,0
2019-04-29T04:34:32.819Z,0
2019-04-29T04:35:32.849Z,0
2019-04-29T04:36:33.207Z,0
2019-04-29T04:37:32.982Z,0
2019-04-29T04:38:33.089Z,0
2019-04-29T04:39:32.894Z,0
2019-04-29T04:40:32.758Z,0
2019-04-29T04:41:32.884Z,0
2019-04-29T04:42:35.271Z,0
2019-04-29T04:43:32.800Z,0
2019-04-29T04:44:33.008Z,0
2019-04-29T04:45:32.893Z,0
2019-04-29T04:46:32.879Z,0
2019-04-29T04:47:32.874Z,0
2019-04-29T04:48:33.199Z,5
2019-04-29T04:49:32.898Z,5
2019-04-29T04:50:32.735Z,5
2019-04-29T04:51:32.920Z,5
2019-04-29T04:52:32.813Z,5
2019-04-29T04:53:32.783Z,5
2019-04-29T04:54:36.909Z,5
2019-04-29T04:55:32.809Z,5
2019-04-29T04:56:32.773Z,5
2019-04-29T04:57:32.803Z,5
2019-04-29T04:58:32.788Z,5
2019-04-29T04:59:32.835Z,5
2019-04-29T05:00:33.031Z,5
2019-04-29T05:01:32.796Z,5
2019-04-29T05:02:32.938Z,5
2019-04-29T05:03:32.764Z,5
2019-04-29T05:04:32.746Z,5
2019-04-29T05:05:32.772Z,5
2019-04-29T05:06:33.193Z,5
2019-04-29T05:07:32.724Z,5
2019-04-29T05:08:32.778Z,5
2019-04-29T05:09:32.827Z,5
2019-04-29T05:10:32.851Z,5
2019-04-29T05:11:32.861Z,5
2019-04-29T05:12:33.268Z,5
2019-04-29T05:13:39.051Z,5
2019-04-29T05:14:32.833Z,5
2019-04-29T05:15:32.824Z,5
2019-04-29T05:16:33.072Z,5
2019-04-29T05:17:33.775Z,5
2019-04-29T05:18:33.128Z,5
2019-04-29T05:19:32.936Z,5
2019-04-29T05:20:32.750Z,5
2019-04-29T05:21:32.802Z,5
2019-04-29T05:22:32.773Z,5
2019-04-29T05:23:32.850Z,5
2019-04-29T05:24:33.149Z,5
2019-04-29T05:25:32.903Z,5
2019-04-29T05:30:49.833Z,10
2019-04-29T05:31:01.071Z,10
2019-04-29T05:32:01.078Z,10
2019-04-29T05:33:01.086Z,10
2019-04-29T05:34:01.130Z,10
2019-04-29T05:35:03.277Z,10
2019-04-29T05:36:09.165Z,10
2019-04-29T05:37:01.078Z,10
2019-04-29T05:38:04.545Z,10
2019-04-29T05:39:01.056Z,10
2019-04-29T05:40:01.141Z,10
2019-04-29T05:41:05.126Z,10
2019-04-29T05:42:01.035Z,10
2019-04-29T05:43:07.734Z,10
2019-04-29T05:44:01.001Z,10
2019-04-29T05:45:01.082Z,10
2019-04-29T05:46:00.993Z,10
2019-04-29T05:47:01.694Z,10
2019-04-29T05:48:05.147Z,10
2019-04-29T05:49:07.080Z,10
2019-04-29T05:50:01.087Z,10
2019-04-29T05:51:02.479Z,10
2019-04-29T05:52:04.824Z,10
2019-04-29T05:53:01.335Z,10
2019-04-29T05:54:05.488Z,10
2019-04-29T05:55:04.184Z,10
2019-04-29T05:56:03.025Z,10
2019-04-29T05:57:01.058Z,10
2019-04-29T05:58:09.096Z,10
2019-04-29T05:59:01.411Z,10
2019-04-29T06:00:01.173Z,15
2019-04-29T06:01:01.028Z,15
2019-04-29T06:02:01.100Z,15
2019-04-29T06:03:01.078Z,15
2019-04-29T06:04:01.030Z,15
2019-04-29T06:05:03.335Z,15
2019-04-29T06:06:01.023Z,15
2019-04-29T06:07:01.030Z,15
2019-04-29T06:08:08.180Z,15
2019-04-29T06:09:01.182Z,15
2019-04-29T06:10:01.092Z,15
2019-04-29T06:11:01.340Z,15
2019-04-29T06:12:01.115Z,15
2019-04-29T06:13:01.017Z,15
2019-04-29T06:14:01.093Z,15
2019-04-29T06:15:01.059Z,15
2019-04-29T06:16:01.085Z,15
2019-04-29T06:17:12.938Z,15
2019-04-29T06:18:01.140Z,15
2019-04-29T06:19:13.706Z,15
2019-04-29T06:20:01.066Z,15
2019-04-29T06:21:14.109Z,15
2019-04-29T06:22:03.716Z,15
2019-04-29T06:23:01.425Z,15
2019-04-29T06:24:07.463Z,15
2019-04-29T06:25:01.129Z,15
2019-04-29T06:26:01.098Z,15
2019-04-29T06:27:01.149Z,15
2019-04-29T06:28:01.134Z,15
2019-04-29T06:29:01.424Z,15
2019-04-29T06:30:05.856Z,15
2019-04-29T06:31:02.502Z,15
2019-04-29T06:32:01.221Z,15
2019-04-29T06:33:01.186Z,15
2019-04-29T06:34:05.077Z,15
2019-04-29T06:35:01.438Z,15
2019-04-29T06:36:02.514Z,15
2019-04-29T06:37:01.165Z,15
2019-04-29T06:38:01.173Z,15
2019-04-29T06:39:01.130Z,15
2019-04-29T06:40:01.118Z,15
2019-04-29T06:41:01.398Z,15
2019-04-29T06:42:01.119Z,15
2019-04-29T06:43:03.898Z,15
2019-04-29T06:44:18.683Z,15
2019-04-29T06:45:01.201Z,15
2019-04-29T06:46:01.329Z,15
2019-04-29T06:47:05.867Z,15
2019-04-29T06:48:01.178Z,15
2019-04-29T06:49:14.702Z,15
2019-04-29T06:50:01.230Z,15
2019-04-29T06:51:01.517Z,15
2019-04-29T06:52:01.156Z,15
2019-04-29T06:53:01.159Z,15
2019-04-29T06:54:01.209Z,15
2019-04-29T06:55:01.117Z,15
2019-04-29T06:56:01.185Z,15
2019-04-29T06:57:01.642Z,15
2019-04-29T06:58:01.720Z,15
2019-04-29T06:59:01.570Z,15
2019-04-29T07:00:03.055Z,15
2019-04-29T07:01:08.572Z,15
2019-04-29T07:02:01.080Z,20
2019-04-29T07:03:01.453Z,20
2019-04-29T07:04:05.965Z,20
2019-04-29T07:05:01.511Z,20
2019-04-29T07:06:02.072Z,20
2019-04-29T07:07:08.182Z,20
2019-04-29T07:08:01.159Z,20
2019-04-29T07:09:01.171Z,15
2019-04-29T07:10:05.186Z,20
2019-04-29T07:11:06.682Z,20
2019-04-29T07:12:12.384Z,20
2019-04-29T07:13:01.209Z,20
2019-04-29T07:14:05.604Z,20
2019-04-29T07:15:01.144Z,20
2019-04-29T07:16:01.535Z,20
2019-04-29T07:17:05.511Z,20
2019-04-29T07:18:02.048Z,20
2019-04-29T07:19:04.087Z,20
2019-04-29T07:20:04.723Z,20
2019-04-29T07:21:01.250Z,20
2019-04-29T07:22:05.594Z,20
2019-04-29T07:23:06.203Z,20
2019-04-29T07:24:01.356Z,20
2019-04-29T07:25:01.215Z,20
2019-04-29T07:26:01.247Z,20
2019-04-29T07:27:05.493Z,20
2019-04-29T07:28:01.586Z,20
2019-04-29T07:29:08.495Z,20
2019-04-29T07:30:06.417Z,20
2019-04-29T07:31:15.247Z,20
2019-04-29T07:32:04.666Z,20
2019-04-29T07:33:01.268Z,20
2019-04-29T07:34:08.374Z,20
2019-04-29T07:35:01.204Z,20
2019-04-29T07:36:18.560Z,20
2019-04-29T07:37:05.784Z,20
2019-04-29T07:38:04.387Z,20
2019-04-29T07:39:06.719Z,20
2019-04-29T07:40:03.592Z,20
2019-04-29T07:41:01.225Z,20
2019-04-29T07:42:08.433Z,20
2019-04-29T07:43:02.716Z,20
2019-04-29T07:44:01.282Z,20
2019-04-29T07:45:03.209Z,20
2019-04-29T07:46:06.686Z,20
2019-04-29T07:47:10.288Z,20
2019-04-29T07:48:11.797Z,20
2019-04-29T07:49:17.065Z,20
2019-04-29T07:50:03.752Z,20
2019-04-29T07:51:07.049Z,25
2019-04-29T07:52:01.489Z,20
2019-04-29T07:53:01.515Z,20
2019-04-29T07:54:01.191Z,20
2019-04-29T07:55:06.380Z,20
2019-04-29T07:56:06.226Z,20
2019-04-29T07:57:01.314Z,20
2019-04-29T07:58:03.066Z,20
2019-04-29T07:59:05.902Z,25
2019-04-29T08:00:01.259Z,25
2019-04-29T08:01:04.128Z,25
2019-04-29T08:02:05.322Z,25
2019-04-29T08:03:01.231Z,25
2019-04-29T08:04:01.235Z,20
2019-04-29T08:05:01.285Z,20
2019-04-29T08:06:01.234Z,20
2019-04-29T08:07:01.253Z,20
2019-04-29T08:08:01.242Z,20
2019-04-29T08:09:14.993Z,20
2019-04-29T08:10:01.628Z,20
2019-04-29T08:11:06.749Z,20
2019-04-29T08:12:01.253Z,20
2019-04-29T08:13:01.278Z,20
2019-04-29T08:14:01.285Z,20
2019-04-29T08:15:15.603Z,20
2019-04-29T08:16:01.618Z,20
2019-04-29T08:17:01.280Z,20
2019-04-29T08:18:20.927Z,25
2019-04-29T08:19:07.416Z,25
2019-04-29T08:20:05.115Z,25
2019-04-29T08:21:01.236Z,25
2019-04-29T08:22:02.012Z,25
2019-04-29T08:23:05.443Z,25
2019-04-29T08:24:01.352Z,25
2019-04-29T08:25:02.668Z,30
2019-04-29T08:26:08.322Z,25
2019-04-29T08:27:01.309Z,25
2019-04-29T08:28:03.143Z,25
2019-04-29T08:29:08.284Z,25
2019-04-29T08:30:01.276Z,20
2019-04-29T08:31:01.298Z,20
2019-04-29T08:32:07.799Z,20
2019-04-29T08:33:01.293Z,20
2019-04-29T08:34:02.778Z,20
2019-04-29T08:35:08.595Z,20
2019-04-29T08:36:01.328Z,20
2019-04-29T08:37:02.138Z,20
2019-04-29T08:38:01.513Z,20
2019-04-29T08:39:13.640Z,20
2019-04-29T08:40:25.609Z,20
2019-04-29T08:41:02.282Z,20
2019-04-29T08:42:09.065Z,20
2019-04-29T08:43:01.336Z,20
2019-04-29T08:44:23.669Z,20
2019-04-29T08:45:08.413Z,20
2019-04-29T08:46:01.669Z,20
2019-04-29T08:47:03.161Z,20
2019-04-29T08:48:01.344Z,20
2019-04-29T08:49:05.949Z,25
2019-04-29T08:50:01.515Z,25
2019-04-29T08:51:01.431Z,25
2019-04-29T08:52:01.646Z,25
2019-04-29T08:53:01.362Z,25
2019-04-29T08:54:01.473Z,25
2019-04-29T08:55:06.002Z,25
2019-04-29T08:56:01.307Z,25
2019-04-29T08:57:13.288Z,25
2019-04-29T08:58:01.762Z,25
2019-04-29T08:59:01.523Z,25
2019-04-29T09:00:01.374Z,25
2019-04-29T09:01:03.728Z,25
2019-04-29T09:02:05.110Z,25
2019-04-29T09:03:01.332Z,25
2019-04-29T09:04:06.274Z,25
2019-04-29T09:05:06.664Z,25
2019-04-29T09:06:14.973Z,25
2019-04-29T09:07:17.367Z,25
2019-04-29T09:08:05.240Z,25
2019-04-29T09:09:28.383Z,25
2019-04-29T09:10:09.004Z,25
2019-04-29T09:11:01.467Z,25
2019-04-29T09:12:01.449Z,25
2019-04-29T09:13:01.351Z,30
2019-04-29T09:14:01.418Z,30
2019-04-29T09:15:01.363Z,30
2019-04-29T09:16:01.636Z,30
2019-04-29T09:17:04.562Z,35
2019-04-29T09:18:01.425Z,35
2019-04-29T09:19:01.377Z,35
2019-04-29T09:20:01.488Z,35
2019-04-29T09:21:01.385Z,30
2019-04-29T09:22:02.755Z,35
2019-04-29T09:23:01.686Z,35
2019-04-29T09:24:01.334Z,35
2019-04-29T09:25:01.455Z,35
2019-04-29T09:26:13.147Z,35
2019-04-29T09:27:04.857Z,35
2019-04-29T09:28:04.979Z,35
2019-04-29T09:29:06.585Z,35
2019-04-29T09:30:08.815Z,35
2019-04-29T09:31:01.598Z,35
2019-04-29T09:32:01.544Z,30
2019-04-29T09:33:01.424Z,30
2019-04-29T09:34:19.749Z,30
2019-04-29T09:35:04.858Z,30
2019-04-29T09:36:01.797Z,30
2019-04-29T09:37:01.435Z,30
2019-04-29T09:38:06.432Z,30
2019-04-29T09:39:01.407Z,30
2019-04-29T09:40:01.755Z,30
2019-04-29T09:41:07.556Z,25
2019-04-29T09:42:03.344Z,25
2019-04-29T09:43:21.269Z,25
2019-04-29T09:44:06.869Z,20
2019-04-29T09:45:01.419Z,20
2019-04-29T09:46:07.160Z,20
2019-04-29T09:47:04.105Z,20
2019-04-29T09:48:01.446Z,20
2019-04-29T09:49:01.446Z,20
2019-04-29T09:50:09.049Z,20
2019-04-29T09:51:01.541Z,20
2019-04-29T09:52:01.823Z,20
2019-04-29T09:53:01.472Z,20
2019-04-29T09:54:01.514Z,20
2019-04-29T09:55:06.931Z,20
2019-04-29T09:56:01.425Z,20
2019-04-29T09:57:01.472Z,20
2019-04-29T09:58:01.754Z,20
2019-04-29T09:59:01.433Z,20
2019-04-29T10:00:09.833Z,20
2019-04-29T10:01:03.764Z,20
2019-04-29T10:02:05.422Z,20
2019-04-29T10:03:02.823Z,20
2019-04-29T10:04:01.728Z,20
2019-04-29T10:05:08.203Z,20
2019-04-29T10:06:01.474Z,20
2019-04-29T10:07:01.502Z,20
2019-04-29T10:08:01.442Z,20
2019-04-29T10:09:01.575Z,20
2019-04-29T10:10:13.891Z,20
2019-04-29T10:11:01.402Z,20
2019-04-29T10:12:01.454Z,20
2019-04-29T10:13:04.433Z,20
2019-04-29T10:14:01.400Z,20
2019-04-29T10:15:01.655Z,20
2019-04-29T10:16:06.232Z,20
2019-04-29T10:17:01.997Z,20
2019-04-29T10:18:06.669Z,20
2019-04-29T10:19:05.122Z,20
2019-04-29T10:20:10.846Z,20
2019-04-29T10:21:01.523Z,20
2019-04-29T10:22:02.235Z,20
2019-04-29T10:23:04.269Z,20
2019-04-29T10:24:01.530Z,20
2019-04-29T10:25:01.474Z,20
2019-04-29T10:26:01.561Z,20
2019-04-29T10:27:01.507Z,20
2019-04-29T10:28:01.783Z,20
2019-04-29T10:29:01.469Z,20
2019-04-29T10:30:05.937Z,20
2019-04-29T10:31:01.511Z,20
2019-04-29T10:32:06.700Z,20
2019-04-29T10:33:01.464Z,25
2019-04-29T10:34:05.858Z,25
2019-04-29T10:35:03.495Z,25
2019-04-29T10:36:01.575Z,20
2019-04-29T10:37:02.911Z,20
2019-04-29T10:38:05.635Z,20
2019-04-29T10:39:01.489Z,20
2019-04-29T10:40:16.029Z,20
2019-04-29T10:41:06.048Z,20
2019-04-29T10:42:01.460Z,20
2019-04-29T10:43:01.489Z,20
2019-04-29T10:44:04.388Z,20
2019-04-29T10:45:01.649Z,25
2019-04-29T10:46:01.885Z,25
2019-04-29T10:47:01.473Z,25
2019-04-29T10:48:01.548Z,25
2019-04-29T10:49:06.591Z,30
2019-04-29T10:50:20.104Z,30
2019-04-29T10:51:02.667Z,30
2019-04-29T10:52:09.699Z,30
2019-04-29T10:53:01.526Z,30
2019-04-29T10:54:03.132Z,25
2019-04-29T10:55:05.765Z,25
2019-04-29T10:56:05.617Z,30
2019-04-29T10:57:01.495Z,30
2019-04-29T10:58:02.219Z,30
2019-04-29T10:59:04.492Z,25
2019-04-29T11:00:03.666Z,25
2019-04-29T11:01:05.369Z,25
2019-04-29T11:02:21.441Z,25
2019-04-29T11:03:01.612Z,20
2019-04-29T11:04:08.782Z,20
2019-04-29T11:05:07.802Z,20
2019-04-29T11:06:12.184Z,20
2019-04-29T11:07:13.524Z,20
2019-04-29T11:08:05.499Z,20
2019-04-29T11:09:01.572Z,20
2019-04-29T11:10:03.420Z,20
2019-04-29T11:11:22.074Z,25
2019-04-29T11:12:01.490Z,25
2019-04-29T11:13:01.515Z,25
2019-04-29T11:14:06.871Z,25
2019-04-29T11:15:04.357Z,25
2019-04-29T11:16:02.050Z,25
2019-04-29T11:17:01.583Z,20
2019-04-29T11:18:11.506Z,20
2019-04-29T11:19:10.954Z,20
2019-04-29T11:20:15.758Z,20
2019-04-29T11:21:04.517Z,20
2019-04-29T11:22:05.564Z,20
2019-04-29T11:23:01.543Z,20
2019-04-29T11:24:05.394Z,20
2019-04-29T11:25:01.595Z,20
2019-04-29T11:26:02.211Z,20
2019-04-29T11:27:14.178Z,20
2019-04-29T11:28:04.314Z,20
2019-04-29T11:29:05.415Z,20
2019-04-29T11:30:05.644Z,20
2019-04-29T11:31:01.720Z,20
2019-04-29T11:32:04.567Z,20
2019-04-29T11:33:07.647Z,20
2019-04-29T11:34:05.156Z,20
2019-04-29T11:35:04.041Z,20
2019-04-29T11:36:06.844Z,20
2019-04-29T11:37:01.526Z,20
2019-04-29T11:38:07.829Z,20
2019-04-29T11:39:01.603Z,20
2019-04-29T11:40:04.995Z,20
2019-04-29T11:41:01.594Z,20
2019-04-29T11:42:07.561Z,20
2019-04-29T11:43:01.594Z,20
2019-04-29T11:44:03.132Z,20
2019-04-29T11:45:07.854Z,20
2019-04-29T11:46:01.855Z,20
2019-04-29T11:47:01.598Z,20
2019-04-29T11:48:01.642Z,20
2019-04-29T11:49:01.715Z,20
2019-04-29T11:50:11.825Z,20
2019-04-29T11:51:05.314Z,20
2019-04-29T11:52:23.530Z,20
2019-04-29T11:53:03.483Z,20
2019-04-29T11:54:01.592Z,20
2019-04-29T11:55:01.658Z,20
2019-04-29T11:56:04.942Z,20
2019-04-29T11:57:01.620Z,20
2019-04-29T11:58:02.427Z,20
2019-04-29T11:59:01.712Z,15
2019-04-29T12:00:01.661Z,15
2019-04-29T12:01:08.239Z,15
2019-04-29T12:02:07.645Z,15
2019-04-29T12:03:01.587Z,15
2019-04-29T12:04:06.939Z,15
2019-04-29T12:05:04.025Z,15
2019-04-29T12:06:01.623Z,15
2019-04-29T12:07:06.974Z,15
2019-04-29T12:08:11.636Z,15
2019-04-29T12:09:06.652Z,15
2019-04-29T12:10:06.425Z,10
2019-04-29T12:11:16.377Z,10
2019-04-29T12:12:01.705Z,10
2019-04-29T12:13:01.704Z,10
2019-04-29T12:14:05.809Z,10
2019-04-29T12:15:01.657Z,10
2019-04-29T12:16:02.081Z,10
2019-04-29T12:17:05.036Z,10
2019-04-29T12:18:04.107Z,10
2019-04-29T12:19:01.647Z,10
2019-04-29T12:20:10.721Z,5
2019-04-29T12:21:01.634Z,5
2019-04-29T12:22:04.725Z,10
2019-04-29T12:23:01.633Z,10
2019-04-29T12:24:02.636Z,10
2019-04-29T12:25:01.971Z,10
2019-04-29T12:26:06.093Z,10
2019-04-29T12:27:01.882Z,10
2019-04-29T12:28:29.523Z,10
2019-04-29T12:29:01.664Z,10
2019-04-29T12:30:07.527Z,15
2019-04-29T12:31:05.613Z,15
2019-04-29T12:32:01.815Z,15
2019-04-29T12:33:06.877Z,15
2019-04-29T12:34:02.008Z,15
2019-04-29T12:35:01.730Z,15
2019-04-29T12:36:08.557Z,15
2019-04-29T12:37:06.863Z,15
2019-04-29T12:38:05.499Z,15
2019-04-29T12:39:02.520Z,10
2019-04-29T12:40:05.201Z,10
2019-04-29T12:41:05.646Z,10
2019-04-29T12:42:04.403Z,10
2019-04-29T12:43:03.078Z,10
2019-04-29T12:44:07.297Z,15
2019-04-29T12:45:01.627Z,15
2019-04-29T12:46:04.644Z,15
2019-04-29T12:47:01.645Z,15
2019-04-29T12:48:01.854Z,15
2019-04-29T12:49:03.433Z,15
2019-04-29T12:50:01.682Z,15
2019-04-29T12:51:07.895Z,15
2019-04-29T12:52:02.129Z,15
2019-04-29T12:53:01.747Z,15
2019-04-29T12:54:01.778Z,15
2019-04-29T12:55:19.962Z,15
2019-04-29T12:56:07.032Z,15
2019-04-29T12:57:02.104Z,15
2019-04-29T12:58:04.642Z,15
2019-04-29T12:59:09.424Z,15
2019-04-29T13:00:07.486Z,15
2019-04-29T13:01:13.904Z,15
2019-04-29T13:02:09.547Z,15
2019-04-29T13:03:06.981Z,20
2019-04-29T13:04:02.338Z,20
2019-04-29T13:05:01.952Z,20
2019-04-29T13:06:12.443Z,20
2019-04-29T13:07:01.923Z,20
2019-04-29T13:08:01.951Z,20
2019-04-29T13:09:17.106Z,20
2019-04-29T13:10:06.813Z,20
2019-04-29T13:11:01.721Z,20
2019-04-29T13:12:30.178Z,20
2019-04-29T13:13:03.498Z,20
2019-04-29T13:14:09.791Z,20
2019-04-29T13:15:18.053Z,20
2019-04-29T13:16:05.260Z,20
2019-04-29T13:17:18.924Z,15
2019-04-29T13:18:28.457Z,15
2019-04-29T13:19:29.668Z,15
2019-04-29T13:20:26.705Z,15
2019-04-29T13:21:17.844Z,15
2019-04-29T13:22:02.085Z,15
2019-04-29T13:23:33.070Z,15
2019-04-29T13:24:31.324Z,15
2019-04-29T13:25:01.786Z,15
2019-04-29T13:26:08.053Z,15
2019-04-29T13:27:15.149Z,15
2019-04-29T13:28:11.910Z,15
2019-04-29T13:29:25.804Z,10
2019-04-29T13:30:01.933Z,10
2019-04-29T13:31:08.489Z,10
2019-04-29T13:32:04.377Z,10
2019-04-29T13:33:22.604Z,10
2019-04-29T13:34:30.870Z,10
2019-04-29T13:35:10.374Z,10
2019-04-29T13:36:01.827Z,10
2019-04-29T13:37:26.475Z,10
2019-04-29T13:38:02.208Z,10
2019-04-29T13:39:01.858Z,10
2019-04-29T13:40:06.114Z,10
2019-04-29T13:41:31.640Z,10
2019-04-29T13:42:20.881Z,10
2019-04-29T13:43:01.828Z,10
2019-04-29T13:44:10.396Z,10
2019-04-29T13:45:27.986Z,10
2019-04-29T13:46:05.208Z,10
2019-04-29T13:47:04.530Z,10
2019-04-29T13:48:06.989Z,10
2019-04-29T13:49:20.178Z,10
2019-04-29T13:50:38.633Z,10
2019-04-29T13:51:01.746Z,10
2019-04-29T13:52:01.840Z,10
2019-04-29T13:53:01.846Z,10
2019-04-29T13:54:14.007Z,10
2019-04-29T13:55:45.600Z,10
2019-04-29T13:57:15.567Z,10
2019-04-29T13:57:27.366Z,10
2019-04-29T13:58:32.794Z,10
2019-04-29T13:59:27.401Z,10
2019-04-29T14:00:32.638Z,10
2019-04-29T14:02:06.866Z,10
2019-04-29T14:02:41.407Z,10
2019-04-29T14:03:27.312Z,10
2019-04-29T14:04:35.032Z,10
2019-04-29T14:05:27.293Z,10
2019-04-29T14:06:29.312Z,10
2019-04-29T14:07:29.273Z,10
2019-04-29T14:08:32.880Z,10
2019-04-29T14:09:27.301Z,10
2019-04-29T14:10:27.578Z,10
2019-04-29T14:11:31.515Z,10
2019-04-29T14:15:05.796Z,10
2019-04-29T14:16:22.028Z,10
2019-04-29T14:17:46.499Z,10
2019-04-29T14:18:19.703Z,10
2019-04-29T14:19:40.739Z,10
2019-04-29T14:20:32.717Z,10
2019-04-29T14:21:19.885Z,10
2019-04-29T14:22:29.658Z,10
2019-04-29T14:23:16.785Z,10
2019-04-29T14:24:16.812Z,10
2019-04-29T14:25:19.075Z,10
2019-04-29T14:26:17.317Z,10
2019-04-29T14:27:29.858Z,10
2019-04-29T14:28:16.796Z,10
2019-04-29T14:29:16.924Z,10
2019-04-29T14:30:20.731Z,10
2019-04-29T14:31:18.574Z,10
2019-04-29T14:32:33.040Z,10
2019-04-29T14:33:19.061Z,10
2019-04-29T14:34:21.326Z,10
2019-04-29T14:35:19.813Z,10
2019-04-29T14:36:19.847Z,10
2019-04-29T14:37:35.805Z,10
2019-04-29T14:38:17.585Z,10
2019-04-29T14:39:39.400Z,10